»·PEaware :: N911VU KLAX-KSAN

N911VU :: KLAX-KSAN

FLIGHT INFORMATION

Flight Status: Arrived
Operator: Privately registered:
United States
More flights under this callsign
Pilot: Austin P. (20876)
Aircraft: SOCATA TBM-900
(TBM9)
More flights by this aircraft type
Origin: KLAX Los Angeles Intl
United States
Destination: KSAN San Diego Intl-Lindbergh
United States
More flights between these airports :: More routes between these airports
Route: +
File this flight plan on PilotEdge
Remarks:
Altitude:
(Current/Filed)
0ft
Speed:
(Current/Filed)
0kts
Departed: 25-Nov-18 11:42 AM
Arrived: 25-Nov-18 12:25 PM
Distance/Time
Traveled:
95nm/0:43
Distance/Time
To Go:
Arrived

Flight Plot

Page will automatically refresh every two minutes.


Map Options




Map Legend


Flown Route
Filed Route
Departure Airport
Arrival Airport
Navaid (VOR, NDB)
Fix

Horizontal Profiles

Position Reports

Time Latitude Longitude Heading Altitude Ground
Speed
25-Nov-18 11:30 33.932727 -118.399127 21 111ft 0kts
25-Nov-18 11:31 33.932727 -118.399127 21 111ft 0kts
25-Nov-18 11:32 33.932727 -118.399127 21 111ft 0kts
25-Nov-18 11:33 33.932727 -118.399127 21 111ft 0kts
25-Nov-18 11:34 33.932727 -118.399126 21 111ft 0kts
25-Nov-18 11:35 33.932727 -118.399126 21 111ft 0kts
25-Nov-18 11:36 33.932755 -118.399112 22 111ft 0kts
25-Nov-18 11:37 33.932918 -118.399031 22 110ft 5kts
25-Nov-18 11:38 33.934581 -118.397888 80 108ft 8kts
25-Nov-18 11:39 33.934998 -118.393777 82 102ft 15kts
25-Nov-18 11:40 33.935565 -118.388236 82 98ft 17kts
25-Nov-18 11:41 33.935977 -118.384207 82 97ft 12kts
25-Nov-18 11:42 33.936329 -118.382807 24 95ft 0kts
25-Nov-18 11:43 33.936333 -118.382805 24 95ft 0kts
25-Nov-18 11:44 33.937193 -118.382903 334 95ft 7kts
25-Nov-18 11:45 33.935457 -118.405957 267 606ft 127kts
25-Nov-18 11:46 33.929015 -118.444209 207 1542ft 116kts
25-Nov-18 11:47 33.897504 -118.441401 172 2497ft 121kts
25-Nov-18 11:48 33.858178 -118.434458 172 2511ft 156kts
25-Nov-18 11:49 33.812807 -118.426403 172 2501ft 168kts
25-Nov-18 11:50 33.767539 -118.415613 143 2491ft 166kts
25-Nov-18 11:51 33.732597 -118.379709 135 2500ft 165kts
25-Nov-18 11:52 33.703061 -118.344065 134 3461ft 140kts
25-Nov-18 11:53 33.675262 -118.310448 135 4963ft 144kts
25-Nov-18 11:54 33.643721 -118.272361 135 5521ft 186kts
25-Nov-18 11:55 33.605242 -118.225905 135 5501ft 203kts
25-Nov-18 11:56 33.565086 -118.177488 135 5494ft 204kts
25-Nov-18 11:57 33.525023 -118.129244 134 5490ft 204kts
25-Nov-18 11:58 33.485004 -118.081120 134 5485ft 203kts
25-Nov-18 11:59 33.445252 -118.033383 134 5482ft 202kts
25-Nov-18 12:00 33.405380 -117.985563 134 5503ft 203kts
25-Nov-18 12:01 33.365467 -117.937761 134 5505ft 203kts
25-Nov-18 12:02 33.325561 -117.890028 135 5504ft 203kts
25-Nov-18 12:03 33.285681 -117.842391 136 5501ft 202kts
25-Nov-18 12:04 33.245920 -117.795000 136 5500ft 201kts
25-Nov-18 12:05 33.206113 -117.747600 136 5405ft 206kts
25-Nov-18 12:06 33.164494 -117.698102 136 4934ft 215kts
25-Nov-18 12:07 33.121854 -117.647461 135 4444ft 217kts
25-Nov-18 12:08 33.079141 -117.596811 135 3951ft 217kts
25-Nov-18 12:09 33.036845 -117.546727 135 3492ft 197kts
25-Nov-18 12:10 33.004707 -117.508702 135 3473ft 130kts
25-Nov-18 12:11 32.982589 -117.483905 160 3501ft 107kts
25-Nov-18 12:12 32.973711 -117.505998 311 3520ft 111kts
25-Nov-18 12:13 32.995631 -117.535418 321 3514ft 125kts
25-Nov-18 12:14 33.009906 -117.512131 135 3521ft 137kts
25-Nov-18 12:15 32.979482 -117.487093 196 3491ft 128kts
25-Nov-18 12:16 32.953700 -117.492140 113 3478ft 95kts
25-Nov-18 12:17 32.934280 -117.457656 127 2800ft 147kts
25-Nov-18 12:18 32.907814 -117.416845 127 2000ft 156kts
25-Nov-18 12:19 32.884214 -117.380768 127 1992ft 128kts
25-Nov-18 12:20 32.862949 -117.348320 128 1996ft 122kts
25-Nov-18 12:21 32.842166 -117.316644 128 1884ft 128kts
25-Nov-18 12:22 32.818510 -117.280647 128 1509ft 144kts
25-Nov-18 12:23 32.797458 -117.248618 128 1479ft 102kts
25-Nov-18 12:24 32.777321 -117.228963 148 1532ft 103kts
25-Nov-18 12:25 32.753382 -117.213274 128 1198ft 91kts
25-Nov-18 12:26 32.744371 -117.186173 106 853ft 94kts
25-Nov-18 12:27 32.730219 -117.170496 256 501ft 93kts
25-Nov-18 12:28 32.733889 -117.190670 301 16ft 3kts
25-Nov-18 12:29 32.734430 -117.188424 104 16ft 12kts
25-Nov-18 12:30 32.734770 -117.186812 216 16ft 0kts
25-Nov-18 12:31 32.734770 -117.186811 216 16ft 0kts
25-Nov-18 12:32 32.734770 -117.186811 216 16ft 0kts
25-Nov-18 12:33 32.734770 -117.186811 216 16ft 0kts
25-Nov-18 12:34 32.734770 -117.186811 216 16ft 0kts
25-Nov-18 12:35 32.734770 -117.186811 216 16ft 0kts
25-Nov-18 12:36 32.734770 -117.186811 216 16ft 0kts
25-Nov-18 12:37 32.734770 -117.186811 216 16ft 0kts
25-Nov-18 12:38 32.734770 -117.186811 216 16ft 0kts
25-Nov-18 12:39 32.734770 -117.186811 216 16ft 0kts
25-Nov-18 12:40 32.734770 -117.186811 216 16ft 0kts
25-Nov-18 12:41 32.734770 -117.186811 216 16ft 0kts
25-Nov-18 12:42 32.734770 -117.186811 216 16ft 0kts

Navigation Log

Ident Type
Flight plan parsing failed, navigation log unavailable